createdAt,value
2023-04-29T00:01:58.942Z,16.90
2023-04-29T00:05:22.862Z,16.87
2023-04-29T00:08:46.735Z,17.77
2023-04-29T00:12:12.074Z,16.10
2023-04-29T00:15:37.456Z,17.47
2023-04-29T00:19:01.039Z,20.37
2023-04-29T00:22:24.744Z,18.03
2023-04-29T00:25:48.350Z,19.07
2023-04-29T00:29:13.338Z,19.40
2023-04-29T00:32:37.028Z,20.50
2023-04-29T00:36:02.017Z,18.50
2023-04-29T00:39:25.789Z,19.20
2023-04-29T00:42:49.462Z,20.60
2023-04-29T00:46:14.667Z,20.20
2023-04-29T00:49:39.703Z,21.90
2023-04-29T00:53:03.922Z,22.60
2023-04-29T00:56:30.480Z,24.30
2023-04-29T00:59:54.461Z,25.00
2023-04-29T01:03:20.690Z,29.60
2023-04-29T01:06:57.148Z,26.90
2023-04-29T01:10:28.228Z,27.13
2023-04-29T01:14:00.260Z,25.67
2023-04-29T01:17:27.179Z,25.80
2023-04-29T01:20:52.946Z,27.10
2023-04-29T01:24:18.211Z,26.50
2023-04-29T01:27:49.882Z,25.97
2023-04-29T01:31:20.605Z,29.50
2023-04-29T01:34:50.843Z,26.43
2023-04-29T01:38:24.556Z,28.90
2023-04-29T01:41:58.835Z,27.67
2023-04-29T01:45:28.611Z,25.57
2023-04-29T01:48:54.767Z,28.87
2023-04-29T01:52:18.947Z,28.50
2023-04-29T01:55:51.260Z,29.50
2023-04-29T01:59:19.039Z,26.80
2023-04-29T02:03:00.082Z,26.03
2023-04-29T02:06:35.709Z,26.03
2023-04-29T02:10:01.157Z,26.87
2023-04-29T02:13:26.702Z,27.37
2023-04-29T02:16:52.369Z,24.63
2023-04-29T02:20:16.636Z,27.73
2023-04-29T02:23:40.628Z,23.30
2023-04-29T02:27:05.862Z,22.67
2023-04-29T02:30:30.274Z,23.27
2023-04-29T02:33:55.494Z,21.93
2023-04-29T02:37:19.183Z,22.63
2023-04-29T02:40:43.988Z,22.43
2023-04-29T02:44:07.721Z,23.80
2023-04-29T02:47:31.511Z,24.07
2023-04-29T02:50:56.585Z,22.80
2023-04-29T02:54:20.496Z,23.00
2023-04-29T02:57:44.254Z,23.70
2023-04-29T03:01:08.119Z,26.87
2023-04-29T03:04:32.780Z,24.77
2023-04-29T03:07:57.903Z,24.63
2023-04-29T03:11:24.561Z,25.47
2023-04-29T03:14:48.469Z,23.63
2023-04-29T03:18:12.366Z,24.50
2023-04-29T03:21:36.135Z,22.70
2023-04-29T03:25:01.320Z,24.00
2023-04-29T03:28:25.283Z,21.00
2023-04-29T03:31:49.066Z,19.80
2023-04-29T03:35:15.577Z,21.20
2023-04-29T03:38:51.046Z,19.27
2023-04-29T03:42:16.256Z,18.73
2023-04-29T03:45:41.117Z,19.27
2023-04-29T03:49:05.390Z,16.53
2023-04-29T03:52:29.471Z,17.00
2023-04-29T03:55:59.109Z,15.23
2023-04-29T03:59:24.342Z,16.13
2023-04-29T04:02:50.725Z,15.20
2023-04-29T04:06:16.855Z,15.47
2023-04-29T04:09:41.755Z,15.70
2023-04-29T04:13:06.561Z,17.30
2023-04-29T04:16:31.877Z,15.63
2023-04-29T04:19:55.964Z,18.37
2023-04-29T04:23:20.129Z,20.40
2023-04-29T04:26:43.984Z,21.97
2023-04-29T04:30:18.891Z,24.80
2023-04-29T04:33:44.380Z,26.80
2023-04-29T04:37:08.245Z,28.90
2023-04-29T04:40:32.607Z,30.43
2023-04-29T04:44:23.259Z,32.77
2023-04-29T04:48:02.287Z,33.40
2023-04-29T04:51:30.725Z,31.97
2023-04-29T04:54:54.709Z,31.40
2023-04-29T04:58:20.898Z,31.17
2023-04-29T05:01:45.719Z,30.57
2023-04-29T05:05:09.845Z,30.07
2023-04-29T05:08:37.131Z,30.03
2023-04-29T05:12:02.523Z,31.77
2023-04-29T05:15:28.581Z,27.87
2023-04-29T05:18:55.354Z,31.53
2023-04-29T05:22:22.177Z,31.30
2023-04-29T05:25:47.168Z,30.93
2023-04-29T05:29:13.177Z,29.37
2023-04-29T05:32:45.795Z,27.93
2023-04-29T05:36:13.634Z,24.90
2023-04-29T05:39:37.726Z,24.90
2023-04-29T05:43:12.684Z,24.60
2023-04-29T05:46:36.420Z,25.37
2023-04-29T05:50:00.742Z,25.50
2023-04-29T05:53:24.627Z,25.10
2023-04-29T05:56:48.488Z,26.63
2023-04-29T06:00:14.459Z,26.30
2023-04-29T06:03:39.012Z,25.37
2023-04-29T06:07:26.597Z,23.70
2023-04-29T06:11:00.161Z,23.80
2023-04-29T06:14:24.056Z,25.17
2023-04-29T06:17:50.263Z,24.23
2023-04-29T06:21:13.825Z,26.03
2023-04-29T06:24:37.591Z,25.73
2023-04-29T06:28:02.095Z,26.33
2023-04-29T06:31:27.738Z,27.50
2023-04-29T06:34:57.789Z,24.83
2023-04-29T06:38:32.827Z,26.70
2023-04-29T06:42:34.683Z,25.40
2023-04-29T06:46:34.491Z,27.27
2023-04-29T06:50:10.822Z,28.93
2023-04-29T06:53:34.695Z,28.43
2023-04-29T06:56:58.316Z,31.77
2023-04-29T07:00:22.723Z,28.80
2023-04-29T07:03:46.758Z,26.47
2023-04-29T07:07:12.265Z,27.80
2023-04-29T07:10:36.032Z,26.07
2023-04-29T07:13:59.626Z,29.97
2023-04-29T07:17:29.555Z,28.63
2023-04-29T07:20:55.728Z,31.03
2023-04-29T07:24:23.292Z,25.13
2023-04-29T07:27:47.778Z,25.20
2023-04-29T07:31:14.978Z,24.23
2023-04-29T07:34:39.373Z,23.10
2023-04-29T07:38:06.507Z,24.70
2023-04-29T07:41:31.604Z,25.40
2023-04-29T07:44:55.840Z,25.57
2023-04-29T07:48:21.172Z,22.57
2023-04-29T07:51:45.358Z,24.70
2023-04-29T07:55:12.556Z,23.80
2023-04-29T07:58:37.736Z,24.73
2023-04-29T08:02:08.572Z,21.83
2023-04-29T08:05:32.493Z,22.00
2023-04-29T08:08:59.693Z,19.90
2023-04-29T08:12:24.288Z,22.10
2023-04-29T08:15:50.430Z,23.80
2023-04-29T08:19:14.369Z,22.60
2023-04-29T08:22:38.526Z,22.23
2023-04-29T08:26:05.092Z,23.60
2023-04-29T08:29:29.049Z,24.37
2023-04-29T08:32:54.735Z,20.63
2023-04-29T08:36:18.372Z,26.50
2023-04-29T08:39:43.362Z,25.23
2023-04-29T08:43:09.793Z,23.57
2023-04-29T08:46:34.050Z,26.33
2023-04-29T08:50:02.612Z,24.33
2023-04-29T08:53:26.880Z,24.10
2023-04-29T08:56:51.262Z,19.87
2023-04-29T09:00:16.002Z,22.80
2023-04-29T09:03:48.398Z,20.77
2023-04-29T09:07:14.722Z,19.93
2023-04-29T09:10:39.028Z,20.97
2023-04-29T09:14:04.366Z,22.60
2023-04-29T09:17:43.661Z,21.17
2023-04-29T09:21:14.917Z,19.13
2023-04-29T09:24:39.908Z,19.87
2023-04-29T09:28:16.644Z,18.00
2023-04-29T09:31:40.533Z,20.30
2023-04-29T09:35:24.020Z,18.90
2023-04-29T09:38:55.648Z,16.90
2023-04-29T09:42:20.661Z,16.33
2023-04-29T09:45:46.264Z,16.23
2023-04-29T09:49:26.004Z,16.40
2023-04-29T09:52:49.605Z,18.00
2023-04-29T09:56:14.303Z,17.50
2023-04-29T09:59:40.540Z,13.20
2023-04-29T10:03:07.065Z,14.20
2023-04-29T10:06:30.932Z,16.53
2023-04-29T10:09:56.086Z,16.00
2023-04-29T10:13:19.680Z,14.87
2023-04-29T10:16:48.921Z,15.13
2023-04-29T10:20:16.304Z,15.50
2023-04-29T10:23:40.682Z,14.97
2023-04-29T10:27:08.054Z,13.87
2023-04-29T10:30:33.190Z,13.30
2023-04-29T10:34:00.417Z,15.30
2023-04-29T10:37:24.500Z,14.57
2023-04-29T10:40:49.658Z,14.50
2023-04-29T10:44:13.224Z,12.77
2023-04-29T10:47:36.908Z,15.40
2023-04-29T10:51:05.962Z,11.63
2023-04-29T10:54:29.557Z,13.53
2023-04-29T10:57:56.646Z,15.67
2023-04-29T11:01:40.308Z,14.23
2023-04-29T11:05:12.284Z,15.90
2023-04-29T11:08:39.958Z,14.33
2023-04-29T11:12:05.662Z,14.87
2023-04-29T11:15:33.560Z,15.73
2023-04-29T11:19:16.627Z,15.60
2023-04-29T11:22:40.150Z,16.03
2023-04-29T11:26:05.737Z,10.27
2023-04-29T11:29:29.938Z,13.53
2023-04-29T11:32:53.532Z,13.00
2023-04-29T11:36:17.299Z,14.70
2023-04-29T11:39:40.912Z,13.90
2023-04-29T11:43:07.586Z,13.53
2023-04-29T11:46:32.524Z,14.50
2023-04-29T11:50:03.894Z,13.20
2023-04-29T11:53:28.078Z,13.50
2023-04-29T11:56:54.893Z,10.20
2023-04-29T12:00:20.562Z,10.93
2023-04-29T12:03:46.373Z,13.00
2023-04-29T12:07:11.466Z,11.93
2023-04-29T12:10:37.101Z,11.00
2023-04-29T12:14:02.613Z,11.43
2023-04-29T12:17:27.943Z,12.00
2023-04-29T12:20:52.459Z,12.63
2023-04-29T12:24:16.967Z,13.10
2023-04-29T12:27:42.481Z,11.90
2023-04-29T12:31:06.422Z,12.73
2023-04-29T12:34:32.828Z,12.37
2023-04-29T12:37:59.698Z,10.80
2023-04-29T12:41:39.370Z,11.80
2023-04-29T12:45:06.561Z,10.93
2023-04-29T12:48:33.921Z,9.77
2023-04-29T12:51:59.761Z,10.67
2023-04-29T12:55:23.700Z,11.03
2023-04-29T12:58:47.220Z,10.47
2023-04-29T13:02:10.936Z,10.67
2023-04-29T13:05:34.688Z,9.47
2023-04-29T13:08:59.830Z,8.40
2023-04-29T13:12:23.685Z,9.40
2023-04-29T13:15:47.612Z,9.07
2023-04-29T13:19:28.271Z,10.43
2023-04-29T13:22:54.924Z,11.37
2023-04-29T13:26:23.833Z,10.67
2023-04-29T13:29:48.159Z,10.67
2023-04-29T13:33:13.381Z,10.50
2023-04-29T13:36:37.276Z,10.47
2023-04-29T13:40:07.080Z,10.43
2023-04-29T13:43:38.353Z,9.80
2023-04-29T13:47:07.649Z,9.07
2023-04-29T13:54:48.329Z,8.90
2023-04-29T14:01:54.771Z,8.97
2023-04-29T14:04:53.821Z,9.60
2023-04-29T14:08:17.838Z,8.50
2023-04-29T14:11:41.586Z,8.97
2023-04-29T14:15:06.065Z,9.60
2023-04-29T14:18:31.062Z,8.30
2023-04-29T14:21:55.046Z,8.40
2023-04-29T14:25:18.736Z,9.97
2023-04-29T14:28:42.279Z,8.30
2023-04-29T14:32:07.321Z,8.83
2023-04-29T14:35:32.363Z,7.90
2023-04-29T14:38:56.004Z,7.67
2023-04-29T14:42:19.654Z,7.33
2023-04-29T14:45:44.013Z,7.60
2023-04-29T14:49:07.572Z,7.83
2023-04-29T14:52:32.696Z,8.37
2023-04-29T14:55:56.499Z,8.43
2023-04-29T14:59:20.061Z,7.23
2023-04-29T15:02:43.737Z,6.07
2023-04-29T15:06:07.326Z,7.47
2023-04-29T15:09:32.736Z,7.93
2023-04-29T15:12:56.709Z,7.07
2023-04-29T15:16:20.457Z,7.07
2023-04-29T15:19:44.028Z,5.83
2023-04-29T15:23:08.390Z,5.93
2023-04-29T15:26:34.028Z,6.27
2023-04-29T15:29:57.841Z,6.17
2023-04-29T15:33:21.492Z,6.93
2023-04-29T15:36:45.131Z,6.77
2023-04-29T15:40:10.514Z,7.27
2023-04-29T15:43:35.626Z,7.50
2023-04-29T15:46:59.419Z,6.43
2023-04-29T15:50:23.172Z,5.93
2023-04-29T15:53:47.889Z,6.80
2023-04-29T15:57:11.634Z,6.67
2023-04-29T16:00:36.562Z,5.23
2023-04-29T16:04:02.280Z,5.47
2023-04-29T16:07:25.940Z,5.53
2023-04-29T16:10:50.637Z,4.30
2023-04-29T16:14:14.165Z,5.07
2023-04-29T16:17:39.140Z,5.73
2023-04-29T16:21:02.775Z,5.17
2023-04-29T16:24:26.699Z,5.03
2023-04-29T16:27:50.307Z,6.17
2023-04-29T16:31:13.962Z,5.77
2023-04-29T16:34:38.885Z,6.20
2023-04-29T16:38:02.658Z,5.80
2023-04-29T16:41:27.005Z,6.10
2023-04-29T16:44:50.553Z,6.10
2023-04-29T16:48:14.114Z,5.30
2023-04-29T16:51:39.035Z,5.80
2023-04-29T16:55:03.671Z,5.17
2023-04-29T16:58:27.461Z,6.47
2023-04-29T17:01:51.437Z,6.20
2023-04-29T17:05:18.843Z,6.33
2023-04-29T17:08:44.430Z,6.80
2023-04-29T17:12:08.221Z,6.50
2023-04-29T17:15:31.817Z,6.00
2023-04-29T17:18:55.350Z,6.17
2023-04-29T17:22:19.744Z,6.37
2023-04-29T17:25:45.027Z,5.50
2023-04-29T17:29:09.007Z,6.10
2023-04-29T17:32:38.785Z,7.23
2023-04-29T17:36:02.631Z,6.43
2023-04-29T17:39:26.246Z,7.90
2023-04-29T17:42:51.237Z,6.97
2023-04-29T17:46:14.885Z,7.30
2023-04-29T17:49:38.516Z,6.70
2023-04-29T17:53:02.048Z,6.80
2023-04-29T17:56:26.179Z,6.30
2023-04-29T17:59:51.341Z,6.63
2023-04-29T18:03:15.247Z,7.70
2023-04-29T18:06:39.890Z,7.63
2023-04-29T18:10:03.741Z,6.50
2023-04-29T18:13:27.993Z,7.47
2023-04-29T18:16:53.164Z,7.90
2023-04-29T18:20:16.778Z,7.53
2023-04-29T18:23:40.840Z,8.33
2023-04-29T18:27:04.620Z,8.10
2023-04-29T18:30:28.134Z,7.63
2023-04-29T18:33:53.049Z,6.40
2023-04-29T18:37:16.555Z,6.40
2023-04-29T18:40:40.214Z,6.13
2023-04-29T18:44:03.747Z,6.60
2023-04-29T18:47:27.410Z,5.10
2023-04-29T18:50:53.744Z,6.33
2023-04-29T18:54:19.593Z,4.87
2023-04-29T18:57:43.428Z,6.20
2023-04-29T19:01:07.349Z,5.90
2023-04-29T19:04:31.833Z,5.83
2023-04-29T19:07:57.415Z,6.60
2023-04-29T19:11:22.437Z,6.40
2023-04-29T19:14:45.987Z,6.00
2023-04-29T19:18:09.497Z,7.60
2023-04-29T19:21:33.836Z,7.10
2023-04-29T19:24:58.758Z,7.40
2023-04-29T19:28:22.400Z,9.90
2023-04-29T19:31:46.007Z,8.10
2023-04-29T19:35:09.963Z,9.53
2023-04-29T19:38:33.659Z,10.60
2023-04-29T19:41:58.682Z,10.83
2023-04-29T19:45:22.563Z,8.90
2023-04-29T19:48:46.144Z,7.47
2023-04-29T19:52:09.916Z,7.50
2023-04-29T19:55:33.841Z,6.90
2023-04-29T19:58:58.893Z,8.30
2023-04-29T20:02:22.704Z,7.43
2023-04-29T20:05:47.264Z,9.50
2023-04-29T20:09:11.286Z,9.97
2023-04-29T20:12:35.602Z,9.23
2023-04-29T20:16:00.653Z,8.63
2023-04-29T20:19:24.358Z,6.70
2023-04-29T20:22:47.957Z,7.43
2023-04-29T20:26:11.847Z,8.47
2023-04-29T20:29:35.435Z,10.10
2023-04-29T20:33:00.490Z,8.30
2023-04-29T20:36:24.200Z,6.70
2023-04-29T20:39:48.022Z,7.10
2023-04-29T20:43:11.667Z,6.77
2023-04-29T20:46:35.366Z,7.17
2023-04-29T20:50:00.461Z,7.40
2023-04-29T20:53:24.048Z,6.70
2023-04-29T20:56:47.570Z,6.70
2023-04-29T21:00:12.485Z,8.30
2023-04-29T21:03:36.329Z,7.10
2023-04-29T21:07:03.217Z,6.17
2023-04-29T21:10:26.983Z,7.20
2023-04-29T21:13:51.491Z,6.90
2023-04-29T21:17:15.000Z,7.10
2023-04-29T21:20:38.495Z,6.57
2023-04-29T21:24:03.622Z,6.47
2023-04-29T21:27:27.242Z,6.43
2023-04-29T21:30:50.809Z,5.27
2023-04-29T21:34:14.310Z,4.60
2023-04-29T21:37:38.207Z,5.10
2023-04-29T21:41:05.860Z,5.60
2023-04-29T21:44:29.597Z,5.30
2023-04-29T21:47:55.343Z,5.40
2023-04-29T21:51:19.930Z,5.10
2023-04-29T21:54:43.578Z,4.67
2023-04-29T21:58:08.569Z,4.90
2023-04-29T22:01:48.355Z,5.20
2023-04-29T22:05:12.203Z,5.73
2023-04-29T22:08:36.242Z,5.93
2023-04-29T22:11:59.781Z,5.70
2023-04-29T22:15:28.873Z,5.47
2023-04-29T22:18:53.050Z,5.50
2023-04-29T22:22:16.689Z,6.37
2023-04-29T22:25:40.642Z,5.27
2023-04-29T22:29:04.386Z,5.30
2023-04-29T22:32:29.483Z,4.87
2023-04-29T22:35:53.470Z,5.70
2023-04-29T22:39:17.084Z,6.17
2023-04-29T22:42:41.853Z,5.77
2023-04-29T22:46:05.831Z,5.57
2023-04-29T22:49:31.046Z,6.57
2023-04-29T22:52:54.573Z,5.90
2023-04-29T22:56:18.086Z,5.03
2023-04-29T22:59:41.590Z,5.37
2023-04-29T23:03:05.220Z,6.17
2023-04-29T23:06:32.089Z,6.13
2023-04-29T23:09:55.922Z,6.17
2023-04-29T23:13:20.089Z,10.67
2023-04-29T23:16:43.609Z,7.80
2023-04-29T23:20:08.567Z,5.50
2023-04-29T23:23:33.613Z,6.83
2023-04-29T23:26:58.180Z,6.20
2023-04-29T23:30:21.722Z,5.67
2023-04-29T23:33:45.249Z,6.20
2023-04-29T23:37:08.968Z,6.50
2023-04-29T23:40:34.107Z,6.50
2023-04-29T23:44:00.924Z,5.23
2023-04-29T23:47:24.617Z,6.13
2023-04-29T23:50:48.289Z,7.20
2023-04-29T23:54:11.811Z,5.53
2023-04-29T23:57:36.832Z,7.90
